Time;durP1;ratioP1;P1;durP2;ratioP2;P2;SDS_P1;SDS_P2;PMS_P1;PMS_P2;Temp;Humidity;BMP_temperature;BMP_pressure;BME280_temperature;BME280_humidity;BME280_pressure;Samples;Min_cycle;Max_cycle;Signal;HPM_P1;HPM_P2
2022/05/06 00:00:07;;;;;;;100.70;38.70;;;;;;;;;;5002449;28;20295;-70
2022/05/06 00:02:32;;;;;;;98.30;40.33;;;;;;;;;;5009914;28;20320;-70
2022/05/06 00:04:57;;;;;;;97.97;40.45;;;;;;;;;;5000911;28;20029;-70
2022/05/06 00:07:22;;;;;;;102.07;39.88;;;;;;;;;;4996144;28;20022;-70
2022/05/06 00:09:47;;;;;;;109.43;41.95;;;;;;;;;;5003941;28;20370;-70
2022/05/06 00:12:13;;;;;;;88.70;36.27;;;;;;;;;;5009005;28;20077;-70
2022/05/06 00:14:39;;;;;;;98.43;39.33;;;;;;;;;;5005679;28;20304;-70
2022/05/06 00:17:04;;;;;;;105.47;43.53;;;;;;;;;;4997690;28;20022;-70
2022/05/06 00:19:30;;;;;;;110.20;41.00;;;;;;;;;;5009191;28;20310;-70
2022/05/06 00:21:55;;;;;;;102.70;41.38;;;;;;;;;;5012846;28;20055;-70
2022/05/06 00:24:20;;;;;;;107.22;41.70;;;;;;;;;;4990455;28;20041;-70
2022/05/06 00:26:45;;;;;;;102.40;39.97;;;;;;;;;;4989520;28;20814;-70
2022/05/06 00:29:10;;;;;;;102.80;40.23;;;;;;;;;;5001611;28;20532;-70
2022/05/06 00:31:36;;;;;;;108.07;39.83;;;;;;;;;;4985045;28;20287;-70
2022/05/06 00:34:01;;;;;;;112.32;40.53;;;;;;;;;;5003495;28;20022;-70
2022/05/06 00:36:26;;;;;;;117.07;40.90;;;;;;;;;;5005317;28;20018;-70
2022/05/06 00:38:51;;;;;;;113.40;39.35;;;;;;;;;;5003519;28;20546;-70
2022/05/06 00:41:17;;;;;;;108.68;39.30;;;;;;;;;;5004781;28;20350;-70
2022/05/06 00:43:43;;;;;;;112.78;39.95;;;;;;;;;;5020139;28;20022;-70
2022/05/06 00:46:12;;;;;;;101.65;39.33;;;;;;;;;;5010329;28;20054;-70
2022/05/06 00:48:38;;;;;;;101.55;37.75;;;;;;;;;;4997957;28;20030;-70
2022/05/06 00:51:03;;;;;;;105.70;37.92;;;;;;;;;;5005333;28;20061;-70
2022/05/06 00:53:29;;;;;;;98.47;36.95;;;;;;;;;;5007159;28;20026;-70
2022/05/06 00:55:56;;;;;;;100.97;37.08;;;;;;;;;;5011036;28;20022;-71
2022/05/06 00:58:23;;;;;;;106.45;36.22;;;;;;;;;;4992948;28;20402;-70
2022/05/06 01:00:48;;;;;;;111.30;38.05;;;;;;;;;;5005020;28;20034;-70
2022/05/06 01:03:14;;;;;;;102.07;36.73;;;;;;;;;;5010336;28;20445;-70
2022/05/06 01:05:39;;;;;;;104.28;39.58;;;;;;;;;;4983820;28;20314;-70
2022/05/06 01:08:04;;;;;;;91.55;36.80;;;;;;;;;;4991756;28;20032;-70
2022/05/06 01:10:30;;;;;;;96.35;37.13;;;;;;;;;;4991592;28;20061;-70
2022/05/06 01:12:55;;;;;;;106.30;38.43;;;;;;;;;;5003964;28;20053;-70
2022/05/06 01:15:22;;;;;;;95.13;35.83;;;;;;;;;;4999865;28;20641;-70
2022/05/06 01:17:48;;;;;;;95.38;35.40;;;;;;;;;;5003427;28;20271;-70
2022/05/06 01:20:16;;;;;;;96.78;35.58;;;;;;;;;;5007178;28;20025;-70
2022/05/06 01:22:42;;;;;;;101.72;35.90;;;;;;;;;;4983474;28;20390;-70
2022/05/06 01:25:08;;;;;;;96.88;35.92;;;;;;;;;;4999740;28;20037;-70
2022/05/06 01:27:34;;;;;;;108.03;38.75;;;;;;;;;;5007884;28;20030;-70
2022/05/06 01:30:00;;;;;;;92.13;34.80;;;;;;;;;;5005768;28;20034;-70
2022/05/06 01:32:27;;;;;;;85.70;32.47;;;;;;;;;;4996307;28;20391;-70
2022/05/06 01:34:54;;;;;;;92.75;33.22;;;;;;;;;;5001847;28;20022;-70
2022/05/06 01:37:21;;;;;;;79.45;31.08;;;;;;;;;;5001402;28;20068;-70
2022/05/06 01:39:48;;;;;;;87.25;33.67;;;;;;;;;;4998326;28;20025;-70
2022/05/06 01:42:17;;;;;;;92.25;34.83;;;;;;;;;;5009952;28;20030;-70
2022/05/06 01:44:45;;;;;;;91.68;35.08;;;;;;;;;;5002193;28;20029;-70
2022/05/06 01:47:14;;;;;;;103.07;36.33;;;;;;;;;;5001717;28;20113;-70
2022/05/06 01:49:39;;;;;;;104.25;36.05;;;;;;;;;;5001012;28;20133;-70
2022/05/06 01:52:07;;;;;;;102.53;36.83;;;;;;;;;;5004653;28;20065;-70
2022/05/06 01:54:32;;;;;;;110.03;36.15;;;;;;;;;;5001941;28;20038;-70
2022/05/06 01:57:01;;;;;;;100.53;34.20;;;;;;;;;;5002582;28;20100;-70
2022/05/06 01:59:26;;;;;;;106.00;37.72;;;;;;;;;;4990449;28;20271;-70
2022/05/06 02:01:51;;;;;;;103.57;38.33;;;;;;;;;;5008476;28;20044;-70
2022/05/06 02:07:00;;;;;;;84.63;31.65;;;;;;;;;;5005272;28;20487;-70
2022/05/06 02:09:25;;;;;;;87.82;31.52;;;;;;;;;;4986210;28;20034;-70
2022/05/06 02:11:50;;;;;;;83.13;31.60;;;;;;;;;;5005484;28;20041;-70
2022/05/06 02:14:16;;;;;;;86.63;33.15;;;;;;;;;;5002972;28;20285;-70
2022/05/06 02:16:41;;;;;;;84.40;32.25;;;;;;;;;;4999604;28;20053;-70
2022/05/06 02:19:07;;;;;;;85.78;32.63;;;;;;;;;;5002796;28;20034;-70
2022/05/06 02:21:32;;;;;;;82.35;30.13;;;;;;;;;;5005616;28;20112;-70
2022/05/06 02:23:57;;;;;;;88.53;32.42;;;;;;;;;;5002680;28;20033;-70
2022/05/06 02:26:22;;;;;;;91.70;33.22;;;;;;;;;;4995283;28;20030;-70
2022/05/06 02:28:47;;;;;;;92.60;30.27;;;;;;;;;;4998383;28;20024;-70
2022/05/06 02:33:57;;;;;;;123.55;38.80;;;;;;;;;;5000190;28;20362;-70
2022/05/06 02:36:22;;;;;;;104.37;33.60;;;;;;;;;;4999052;28;20476;-70
2022/05/06 02:38:47;;;;;;;100.53;33.80;;;;;;;;;;4999440;28;20354;-70
2022/05/06 02:41:14;;;;;;;117.30;37.85;;;;;;;;;;4999817;28;20629;-70
2022/05/06 02:43:39;;;;;;;104.10;34.20;;;;;;;;;;5005170;28;20026;-70
2022/05/06 02:46:04;;;;;;;114.82;36.38;;;;;;;;;;5008764;28;20029;-69
2022/05/06 02:48:29;;;;;;;124.80;37.90;;;;;;;;;;4996271;28;20144;-70
2022/05/06 02:50:55;;;;;;;122.28;37.90;;;;;;;;;;5008986;28;20633;-70
2022/05/06 02:53:21;;;;;;;121.82;38.22;;;;;;;;;;5008371;28;20395;-70
2022/05/06 02:55:46;;;;;;;134.00;37.25;;;;;;;;;;4986496;28;20118;-70
2022/05/06 02:58:11;;;;;;;122.10;38.00;;;;;;;;;;5000826;28;20387;-70
2022/05/06 03:00:36;;;;;;;150.68;42.40;;;;;;;;;;5006960;28;20033;-70
2022/05/06 03:03:02;;;;;;;152.45;40.88;;;;;;;;;;5012640;28;20053;-70
2022/05/06 03:05:27;;;;;;;156.18;43.83;;;;;;;;;;4990274;28;20022;-70
2022/05/06 03:07:52;;;;;;;156.37;43.37;;;;;;;;;;5006158;28;20813;-70
2022/05/06 03:10:17;;;;;;;147.33;39.93;;;;;;;;;;5005658;28;20264;-70
2022/05/06 03:12:43;;;;;;;156.25;41.30;;;;;;;;;;5006735;28;20606;-70
2022/05/06 03:15:08;;;;;;;146.00;40.13;;;;;;;;;;5006897;28;20357;-70
2022/05/06 03:17:34;;;;;;;148.85;40.22;;;;;;;;;;5000633;28;20072;-70
2022/05/06 03:19:59;;;;;;;153.88;39.00;;;;;;;;;;5003333;28;20046;-70
2022/05/06 03:22:25;;;;;;;122.97;38.40;;;;;;;;;;5004991;28;20041;-70
2022/05/06 03:24:50;;;;;;;124.68;38.10;;;;;;;;;;5006756;28;20183;-70
2022/05/06 03:30:00;;;;;;;116.22;33.58;;;;;;;;;;5008674;28;20040;-69
2022/05/06 03:32:27;;;;;;;129.15;37.63;;;;;;;;;;5002285;28;20018;-69
2022/05/06 03:34:52;;;;;;;136.75;34.67;;;;;;;;;;4991620;28;20048;-69
2022/05/06 03:37:17;;;;;;;119.57;35.47;;;;;;;;;;5002282;28;20380;-69
2022/05/06 03:39:43;;;;;;;104.95;33.40;;;;;;;;;;5002037;28;20491;-69
2022/05/06 03:42:08;;;;;;;107.10;34.33;;;;;;;;;;5005055;28;20032;-69
2022/05/06 03:44:33;;;;;;;90.82;30.83;;;;;;;;;;4991141;28;20034;-69
2022/05/06 03:46:59;;;;;;;100.93;32.60;;;;;;;;;;5003598;28;20613;-69
2022/05/06 03:49:24;;;;;;;104.18;32.15;;;;;;;;;;5000144;28;20626;-69
2022/05/06 03:51:50;;;;;;;102.68;32.67;;;;;;;;;;5004482;28;20030;-69
2022/05/06 03:54:16;;;;;;;105.72;32.90;;;;;;;;;;5005063;28;20109;-69
2022/05/06 03:56:41;;;;;;;100.05;31.10;;;;;;;;;;5005188;28;20022;-69
2022/05/06 03:59:06;;;;;;;97.95;30.05;;;;;;;;;;4984383;28;20026;-69
2022/05/06 04:01:31;;;;;;;104.05;31.27;;;;;;;;;;5000388;28;20484;-69
2022/05/06 04:03:57;;;;;;;115.65;33.10;;;;;;;;;;4987142;28;20267;-69
2022/05/06 04:06:22;;;;;;;204.60;48.83;;;;;;;;;;5003666;28;20048;-69
2022/05/06 04:08:47;;;;;;;344.98;61.03;;;;;;;;;;5001107;28;20100;-69
2022/05/06 04:11:13;;;;;;;495.23;77.40;;;;;;;;;;5005109;28;20041;-69
2022/05/06 04:13:38;;;;;;;558.00;85.97;;;;;;;;;;4999503;28;20649;-69
2022/05/06 04:16:04;;;;;;;549.00;88.80;;;;;;;;;;5005425;28;20045;-69
2022/05/06 04:18:29;;;;;;;514.72;91.50;;;;;;;;;;4993953;28;20026;-69
2022/05/06 04:23:38;;;;;;;374.70;64.22;;;;;;;;;;5001916;28;20048;-69
2022/05/06 04:26:04;;;;;;;326.35;60.30;;;;;;;;;;5004016;28;20065;-69
2022/05/06 04:28:31;;;;;;;278.63;52.78;;;;;;;;;;4984539;28;20535;-69
2022/05/06 04:30:57;;;;;;;178.43;43.58;;;;;;;;;;5005416;28;20041;-69
2022/05/06 04:33:24;;;;;;;167.70;41.47;;;;;;;;;;5010934;28;20022;-69
2022/05/06 04:35:50;;;;;;;137.18;37.60;;;;;;;;;;5002380;28;20032;-69
2022/05/06 04:38:15;;;;;;;132.75;36.63;;;;;;;;;;4996789;28;20627;-69
2022/05/06 04:40:40;;;;;;;119.90;31.40;;;;;;;;;;5009422;28;20059;-69
2022/05/06 04:43:06;;;;;;;109.80;28.05;;;;;;;;;;5003067;28;20462;-69
2022/05/06 04:45:31;;;;;;;108.10;28.30;;;;;;;;;;5007025;28;20060;-69
2022/05/06 04:47:57;;;;;;;97.03;28.57;;;;;;;;;;5004214;28;20508;-69
2022/05/06 04:50:22;;;;;;;91.35;26.27;;;;;;;;;;5005299;28;20313;-69
2022/05/06 04:52:48;;;;;;;71.53;23.17;;;;;;;;;;5002949;28;20402;-69
2022/05/06 04:55:13;;;;;;;83.43;25.30;;;;;;;;;;5002880;28;20037;-69
2022/05/06 04:57:38;;;;;;;91.22;26.13;;;;;;;;;;5006570;28;20022;-69
2022/05/06 05:00:04;;;;;;;94.80;26.35;;;;;;;;;;5008595;28;20042;-69
2022/05/06 05:02:29;;;;;;;102.22;27.90;;;;;;;;;;5004337;28;20045;-69
2022/05/06 05:04:57;;;;;;;74.72;22.88;;;;;;;;;;5004025;28;20021;-69
2022/05/06 05:07:23;;;;;;;73.97;23.75;;;;;;;;;;5004516;28;20046;-69
2022/05/06 05:09:48;;;;;;;84.93;24.73;;;;;;;;;;5004239;28;20040;-69
2022/05/06 05:12:14;;;;;;;93.43;24.75;;;;;;;;;;5000498;28;20125;-69
2022/05/06 05:14:41;;;;;;;78.35;24.05;;;;;;;;;;5010157;28;20022;-69
2022/05/06 05:17:06;;;;;;;73.82;23.13;;;;;;;;;;5006783;28;20079;-68
2022/05/06 05:19:31;;;;;;;80.80;23.97;;;;;;;;;;5003228;28;20026;-68
2022/05/06 05:21:56;;;;;;;89.72;25.08;;;;;;;;;;4998173;28;20293;-68
2022/05/06 05:24:22;;;;;;;92.60;26.17;;;;;;;;;;5001754;28;20026;-69
2022/05/06 05:26:47;;;;;;;118.68;29.63;;;;;;;;;;5002229;28;20030;-69
2022/05/06 05:29:12;;;;;;;95.22;25.85;;;;;;;;;;5002161;28;20030;-69
2022/05/06 05:31:37;;;;;;;75.80;24.30;;;;;;;;;;4999776;28;20113;-70
2022/05/06 05:34:02;;;;;;;94.80;24.52;;;;;;;;;;5002034;28;20033;-70
2022/05/06 05:36:28;;;;;;;99.80;28.30;;;;;;;;;;4999612;28;20068;-68
2022/05/06 05:38:53;;;;;;;96.63;27.58;;;;;;;;;;4984958;28;20276;-70
2022/05/06 05:41:18;;;;;;;116.45;27.00;;;;;;;;;;5001102;28;20482;-74
2022/05/06 05:49:11;;;;;;;99.88;25.42;;;;;;;;;;4999753;28;20088;-71
2022/05/06 05:51:36;;;;;;;106.87;26.70;;;;;;;;;;4984882;28;20038;-70
2022/05/06 05:54:02;;;;;;;141.50;28.10;;;;;;;;;;5001169;28;20267;-71
2022/05/06 05:56:27;;;;;;;92.95;26.42;;;;;;;;;;4996168;28;20076;-70
2022/05/06 05:58:52;;;;;;;101.23;26.97;;;;;;;;;;4994931;28;20040;-71
2022/05/06 06:01:18;;;;;;;115.30;26.97;;;;;;;;;;4998343;28;20274;-71
2022/05/06 06:03:43;;;;;;;118.55;29.38;;;;;;;;;;4999551;28;20758;-68
2022/05/06 06:06:08;;;;;;;125.53;31.33;;;;;;;;;;4981031;28;20543;-70
2022/05/06 06:08:33;;;;;;;98.22;26.40;;;;;;;;;;4997221;28;20279;-70
2022/05/06 06:11:01;;;;;;;100.82;27.15;;;;;;;;;;4998234;28;20033;-70
2022/05/06 06:13:27;;;;;;;106.00;26.08;;;;;;;;;;4998455;28;20018;-70
2022/05/06 06:15:52;;;;;;;111.00;28.65;;;;;;;;;;5000225;28;20420;-70
2022/05/06 06:18:20;;;;;;;91.60;26.20;;;;;;;;;;4998160;28;20389;-70
2022/05/06 06:20:45;;;;;;;90.65;24.60;;;;;;;;;;4998931;28;20029;-70
2022/05/06 06:23:10;;;;;;;87.30;24.77;;;;;;;;;;4997090;28;20307;-71
2022/05/06 06:25:36;;;;;;;95.50;23.88;;;;;;;;;;5001590;28;20034;-70
2022/05/06 06:28:01;;;;;;;92.75;23.75;;;;;;;;;;5003182;28;20117;-70
2022/05/06 06:30:26;;;;;;;92.40;26.48;;;;;;;;;;5006851;28;20423;-69
2022/05/06 06:32:51;;;;;;;112.82;28.73;;;;;;;;;;5004430;28;20049;-68
2022/05/06 06:35:18;;;;;;;108.85;27.38;;;;;;;;;;5003662;28;20026;-68
2022/05/06 06:37:44;;;;;;;97.10;28.48;;;;;;;;;;5003901;28;20024;-68
2022/05/06 06:40:09;;;;;;;96.15;25.98;;;;;;;;;;5013687;28;20124;-68
2022/05/06 06:42:34;;;;;;;108.00;26.00;;;;;;;;;;5005459;28;20113;-68
2022/05/06 06:44:59;;;;;;;89.20;25.10;;;;;;;;;;5012818;28;20026;-68
2022/05/06 06:47:25;;;;;;;113.47;26.95;;;;;;;;;;5010660;28;20692;-69
2022/05/06 06:49:50;;;;;;;88.70;25.15;;;;;;;;;;4996352;28;20383;-68
2022/05/06 06:52:15;;;;;;;110.53;27.17;;;;;;;;;;5011653;28;20078;-69
2022/05/06 06:54:40;;;;;;;88.43;24.58;;;;;;;;;;5005605;28;21064;-69
2022/05/06 06:57:06;;;;;;;105.03;27.08;;;;;;;;;;5009531;28;20787;-70
2022/05/06 06:59:31;;;;;;;96.88;26.77;;;;;;;;;;5004258;28;20044;-69
2022/05/06 07:01:56;;;;;;;101.60;27.10;;;;;;;;;;5005307;28;20052;-69
2022/05/06 07:04:21;;;;;;;83.47;24.07;;;;;;;;;;5010504;28;20267;-69
2022/05/06 07:12:15;;;;;;;77.07;24.08;;;;;;;;;;5015590;28;20096;-70
2022/05/06 07:14:40;;;;;;;81.35;26.17;;;;;;;;;;5008654;28;20050;-70
2022/05/06 07:17:05;;;;;;;86.47;25.88;;;;;;;;;;5005660;28;20665;-70
2022/05/06 07:19:31;;;;;;;76.53;24.13;;;;;;;;;;5008527;28;21858;-70
2022/05/06 07:21:56;;;;;;;80.63;24.63;;;;;;;;;;4991928;28;20105;-70
2022/05/06 07:24:21;;;;;;;89.57;24.88;;;;;;;;;;4991395;28;20067;-70
2022/05/06 07:26:47;;;;;;;83.00;24.58;;;;;;;;;;5006368;28;20029;-70
2022/05/06 07:29:12;;;;;;;77.50;24.73;;;;;;;;;;4994351;28;20108;-69
2022/05/06 07:31:38;;;;;;;67.07;22.85;;;;;;;;;;5007862;28;20026;-69
2022/05/06 07:34:03;;;;;;;73.22;23.58;;;;;;;;;;5003227;28;20014;-69
2022/05/06 07:36:28;;;;;;;67.97;21.90;;;;;;;;;;5007070;28;20065;-69
2022/05/06 07:38:53;;;;;;;67.13;22.50;;;;;;;;;;5002961;28;20021;-69
2022/05/06 07:41:19;;;;;;;65.70;21.23;;;;;;;;;;5004004;28;20343;-70
2022/05/06 07:43:44;;;;;;;58.63;22.20;;;;;;;;;;4996807;28;20370;-70
2022/05/06 07:46:09;;;;;;;63.97;22.37;;;;;;;;;;5002752;28;20279;-69
2022/05/06 07:48:37;;;;;;;76.18;23.58;;;;;;;;;;4982224;28;20372;-69
2022/05/06 07:51:03;;;;;;;61.50;22.20;;;;;;;;;;5003673;28;20037;-70
2022/05/06 07:53:28;;;;;;;60.95;21.55;;;;;;;;;;5006797;28;20014;-70
2022/05/06 07:55:53;;;;;;;63.13;23.15;;;;;;;;;;5001359;28;20026;-70
2022/05/06 07:58:18;;;;;;;71.57;23.30;;;;;;;;;;5000646;28;20030;-70
2022/05/06 08:00:44;;;;;;;64.72;22.23;;;;;;;;;;4984432;28;20028;-70
2022/05/06 08:05:57;;;;;;;77.25;24.00;;;;;;;;;;5001652;28;20537;-70
2022/05/06 08:08:22;;;;;;;72.20;27.33;;;;;;;;;;4985241;28;20429;-70
2022/05/06 08:10:47;;;;;;;77.28;26.33;;;;;;;;;;4985806;28;20127;-70
2022/05/06 08:13:14;;;;;;;77.68;28.08;;;;;;;;;;4985535;28;20033;-70
2022/05/06 08:15:39;;;;;;;71.65;25.30;;;;;;;;;;5001819;28;20029;-69
2022/05/06 08:18:05;;;;;;;72.43;26.47;;;;;;;;;;4997161;28;20030;-69
2022/05/06 08:20:30;;;;;;;74.78;27.60;;;;;;;;;;5000186;28;20641;-70
2022/05/06 08:22:55;;;;;;;75.20;26.83;;;;;;;;;;5005875;28;20036;-69
2022/05/06 08:25:21;;;;;;;76.25;26.92;;;;;;;;;;4997581;28;20119;-70
2022/05/06 08:27:46;;;;;;;67.32;25.20;;;;;;;;;;5004960;28;20396;-69
2022/05/06 08:30:12;;;;;;;71.17;25.53;;;;;;;;;;4983898;28;20037;-70
2022/05/06 08:32:38;;;;;;;63.10;24.92;;;;;;;;;;5004556;28;20169;-69
2022/05/06 08:35:03;;;;;;;68.40;25.75;;;;;;;;;;4998234;28;20112;-70
2022/05/06 08:37:29;;;;;;;64.40;24.33;;;;;;;;;;5009142;28;20709;-70
2022/05/06 08:39:54;;;;;;;59.40;24.15;;;;;;;;;;4998351;28;20065;-70
2022/05/06 08:42:20;;;;;;;60.58;24.23;;;;;;;;;;5005550;28;20037;-70
2022/05/06 08:53:01;;;;;;;52.70;19.88;;;;;;;;;;5001507;28;20037;-69
2022/05/06 08:55:26;;;;;;;62.33;25.33;;;;;;;;;;4998820;28;20128;-71
2022/05/06 08:57:51;;;;;;;57.47;23.87;;;;;;;;;;4998706;28;20509;-74
2022/05/06 09:00:22;;;;;;;52.05;22.15;;;;;;;;;;5000058;28;20379;-69
2022/05/06 09:02:47;;;;;;;48.58;20.15;;;;;;;;;;5001911;28;20030;-69
2022/05/06 09:05:13;;;;;;;45.83;19.80;;;;;;;;;;5002020;28;20028;-69
2022/05/06 09:07:38;;;;;;;49.35;21.25;;;;;;;;;;4989045;28;20079;-69
2022/05/06 09:10:13;;;;;;;49.22;22.58;;;;;;;;;;4996737;28;20022;-70
2022/05/06 09:12:42;;;;;;;45.85;19.45;;;;;;;;;;5002318;28;20072;-69
2022/05/06 09:17:56;;;;;;;46.03;17.67;;;;;;;;;;4997454;28;20340;-69
2022/05/06 09:20:22;;;;;;;39.67;18.33;;;;;;;;;;4997950;28;20022;-69
2022/05/06 09:22:50;;;;;;;45.03;20.45;;;;;;;;;;4999083;28;20599;-69
2022/05/06 09:25:34;;;;;;;45.72;20.50;;;;;;;;;;4996208;28;20022;-70
2022/05/06 09:27:59;;;;;;;38.42;18.52;;;;;;;;;;4997455;28;20523;-69
2022/05/06 09:30:24;;;;;;;53.38;20.20;;;;;;;;;;4996106;28;20037;-69
2022/05/06 09:32:49;;;;;;;40.65;18.60;;;;;;;;;;4999595;28;20022;-70
2022/05/06 09:35:15;;;;;;;39.73;19.13;;;;;;;;;;5001303;28;20072;-70
2022/05/06 09:37:41;;;;;;;41.25;18.67;;;;;;;;;;4983906;28;20473;-69
2022/05/06 09:40:27;;;;;;;39.70;18.88;;;;;;;;;;5005568;28;20072;-69
2022/05/06 09:42:55;;;;;;;36.72;18.42;;;;;;;;;;5003143;28;20037;-69
2022/05/06 09:45:33;;;;;;;38.33;17.05;;;;;;;;;;5003072;28;20022;-70
2022/05/06 09:48:00;;;;;;;37.55;17.67;;;;;;;;;;5004908;28;20457;-70
2022/05/06 09:50:31;;;;;;;32.40;16.75;;;;;;;;;;5003808;28;20468;-70
2022/05/06 09:53:00;;;;;;;33.97;16.92;;;;;;;;;;4986860;28;20045;-70
2022/05/06 09:55:26;;;;;;;39.70;18.00;;;;;;;;;;5007086;28;20010;-70
2022/05/06 09:57:51;;;;;;;29.95;14.70;;;;;;;;;;5001276;28;20472;-69
2022/05/06 10:00:17;;;;;;;28.48;13.27;;;;;;;;;;5004632;28;20031;-69
2022/05/06 10:02:42;;;;;;;27.35;12.88;;;;;;;;;;5002070;28;20478;-68
2022/05/06 10:05:07;;;;;;;24.52;11.82;;;;;;;;;;5002017;28;20125;-69
2022/05/06 10:07:34;;;;;;;27.58;14.50;;;;;;;;;;5000203;28;20026;-70
2022/05/06 10:10:05;;;;;;;19.65;11.23;;;;;;;;;;4994135;28;20026;-70
2022/05/06 10:12:35;;;;;;;24.48;12.73;;;;;;;;;;4998398;28;20022;-71
2022/05/06 10:15:02;;;;;;;26.15;11.98;;;;;;;;;;4994991;28;20021;-70
2022/05/06 10:17:45;;;;;;;23.65;12.63;;;;;;;;;;4995108;28;20020;-70
2022/05/06 10:20:11;;;;;;;24.38;11.93;;;;;;;;;;4998422;28;20502;-69
2022/05/06 10:22:58;;;;;;;22.87;12.53;;;;;;;;;;5001284;28;20045;-69
2022/05/06 10:25:41;;;;;;;21.42;11.38;;;;;;;;;;4999018;28;20121;-70
2022/05/06 10:34:05;;;;;;;22.20;12.63;;;;;;;;;;4998877;28;20056;-70
2022/05/06 10:36:43;;;;;;;28.50;13.90;;;;;;;;;;4998757;28;21759;-70
2022/05/06 10:39:26;;;;;;;21.90;12.23;;;;;;;;;;5004100;28;20033;-70
2022/05/06 10:41:57;;;;;;;23.20;12.07;;;;;;;;;;4998878;28;20449;-70
2022/05/06 10:44:33;;;;;;;21.58;11.77;;;;;;;;;;4999486;28;20018;-71
2022/05/06 10:46:58;;;;;;;25.08;13.20;;;;;;;;;;4997355;28;20018;-70
2022/05/06 10:49:38;;;;;;;17.40;10.53;;;;;;;;;;5001484;28;20023;-70
2022/05/06 10:52:15;;;;;;;21.88;10.68;;;;;;;;;;4997564;28;20060;-71
2022/05/06 10:54:41;;;;;;;16.73;10.02;;;;;;;;;;5004980;28;20483;-73
2022/05/06 10:57:07;;;;;;;19.23;11.25;;;;;;;;;;4982348;28;20026;-75
2022/05/06 10:59:52;;;;;;;17.80;9.13;;;;;;;;;;4981784;28;20068;-70
2022/05/06 11:02:21;;;;;;;17.15;10.02;;;;;;;;;;4996410;28;20046;-71
2022/05/06 11:04:49;;;;;;;12.18;7.90;;;;;;;;;;4998376;28;20064;-71
2022/05/06 11:07:14;;;;;;;12.85;7.97;;;;;;;;;;5000032;28;20357;-72
2022/05/06 11:09:39;;;;;;;19.35;11.88;;;;;;;;;;4995960;28;20032;-72
2022/05/06 11:12:06;;;;;;;16.90;10.60;;;;;;;;;;5000125;28;20404;-70
2022/05/06 11:14:31;;;;;;;15.52;9.65;;;;;;;;;;5003297;28;20014;-71
2022/05/06 11:17:16;;;;;;;13.67;8.63;;;;;;;;;;4998837;28;20041;-70
2022/05/06 11:19:41;;;;;;;16.33;9.80;;;;;;;;;;5003933;28;20042;-70
2022/05/06 11:22:07;;;;;;;13.20;8.82;;;;;;;;;;4986615;28;20022;-70
2022/05/06 11:24:32;;;;;;;19.45;11.05;;;;;;;;;;5002038;28;20693;-70
2022/05/06 11:27:13;;;;;;;17.17;9.80;;;;;;;;;;4988159;28;20026;-71
2022/05/06 11:29:58;;;;;;;19.40;11.82;;;;;;;;;;4986890;28;20036;-71
2022/05/06 11:32:24;;;;;;;14.30;9.50;;;;;;;;;;5003143;28;20032;-70
2022/05/06 11:34:59;;;;;;;15.15;8.68;;;;;;;;;;4996802;28;20022;-70
2022/05/06 11:37:28;;;;;;;11.98;8.07;;;;;;;;;;5002553;28;20014;-70
2022/05/06 11:42:37;;;;;;;14.95;9.82;;;;;;;;;;5004046;28;20103;-71
2022/05/06 11:47:46;;;;;;;10.23;7.93;;;;;;;;;;5002469;28;20768;-70
2022/05/06 11:50:11;;;;;;;15.30;10.63;;;;;;;;;;4999631;28;20026;-71
2022/05/06 11:52:38;;;;;;;13.70;9.57;;;;;;;;;;5004079;28;20030;-70
2022/05/06 11:55:04;;;;;;;24.17;9.75;;;;;;;;;;5002195;28;20086;-70
2022/05/06 11:57:29;;;;;;;16.30;8.70;;;;;;;;;;4999617;28;20148;-70
2022/05/06 11:59:55;;;;;;;13.63;8.40;;;;;;;;;;4996321;28;20034;-69
2022/05/06 12:02:20;;;;;;;12.05;8.70;;;;;;;;;;5001342;28;20033;-71
2022/05/06 12:04:45;;;;;;;11.73;7.90;;;;;;;;;;4999080;28;20041;-70
2022/05/06 12:07:10;;;;;;;15.67;7.90;;;;;;;;;;4998783;28;20283;-70
2022/05/06 12:09:43;;;;;;;12.83;8.53;;;;;;;;;;4982999;28;20030;-70
2022/05/06 12:12:09;;;;;;;14.00;8.13;;;;;;;;;;4997068;28;20291;-70
2022/05/06 12:14:34;;;;;;;16.30;8.07;;;;;;;;;;4996682;28;20030;-80
2022/05/06 12:17:15;;;;;;;10.30;7.28;;;;;;;;;;4996428;28;20057;-71
2022/05/06 12:19:44;;;;;;;8.75;7.25;;;;;;;;;;4994713;28;20495;-70
2022/05/06 12:22:10;;;;;;;10.35;7.80;;;;;;;;;;4999470;28;20030;-71
2022/05/06 12:24:38;;;;;;;11.68;7.90;;;;;;;;;;5001365;28;20060;-69
2022/05/06 12:27:04;;;;;;;11.18;7.95;;;;;;;;;;4999598;28;20231;-71
2022/05/06 12:29:34;;;;;;;14.95;9.40;;;;;;;;;;5001504;28;20105;-71
2022/05/06 12:32:00;;;;;;;14.65;9.00;;;;;;;;;;4998080;28;20153;-70
2022/05/06 12:34:29;;;;;;;10.57;8.13;;;;;;;;;;4994166;28;20092;-71
2022/05/06 12:37:06;;;;;;;11.10;8.50;;;;;;;;;;4999569;28;20025;-71
2022/05/06 12:39:37;;;;;;;12.68;8.45;;;;;;;;;;4997216;28;20069;-70
2022/05/06 12:42:10;;;;;;;12.35;8.93;;;;;;;;;;5000055;28;20029;-71
2022/05/06 12:44:36;;;;;;;16.02;8.40;;;;;;;;;;4998524;28;20411;-71
2022/05/06 12:47:11;;;;;;;15.02;8.90;;;;;;;;;;4997507;28;20510;-70
2022/05/06 12:49:42;;;;;;;13.40;8.85;;;;;;;;;;5002215;28;20044;-71
2022/05/06 12:52:10;;;;;;;11.18;7.57;;;;;;;;;;4998249;28;20045;-71
2022/05/06 12:54:36;;;;;;;15.82;7.97;;;;;;;;;;4996593;28;20121;-71
2022/05/06 12:57:01;;;;;;;12.88;7.70;;;;;;;;;;4986796;28;20140;-71
2022/05/06 12:59:27;;;;;;;10.48;7.32;;;;;;;;;;4999442;28;20039;-70
2022/05/06 13:01:52;;;;;;;12.53;8.50;;;;;;;;;;5004155;28;20044;-71
2022/05/06 13:04:18;;;;;;;16.42;8.82;;;;;;;;;;4998209;28;20034;-70
2022/05/06 13:06:43;;;;;;;12.95;8.45;;;;;;;;;;5004859;28;20109;-71
2022/05/06 13:09:09;;;;;;;13.80;8.57;;;;;;;;;;5003115;28;20478;-71
2022/05/06 13:11:34;;;;;;;12.38;7.57;;;;;;;;;;4995801;28;20313;-71
2022/05/06 13:13:59;;;;;;;10.65;6.55;;;;;;;;;;4999676;28;20018;-71
2022/05/06 13:16:25;;;;;;;11.15;6.90;;;;;;;;;;4997636;28;20026;-70
2022/05/06 13:18:52;;;;;;;11.47;6.87;;;;;;;;;;5000317;28;20876;-70
2022/05/06 13:21:17;;;;;;;8.68;6.28;;;;;;;;;;4999580;28;20282;-70
2022/05/06 13:23:42;;;;;;;11.23;6.10;;;;;;;;;;4998727;28;20026;-70
2022/05/06 13:26:08;;;;;;;10.48;6.57;;;;;;;;;;5000205;28;20275;-70
2022/05/06 13:28:33;;;;;;;13.02;6.60;;;;;;;;;;4995718;28;20069;-71
2022/05/06 13:30:58;;;;;;;12.70;6.40;;;;;;;;;;4995984;28;20056;-70
2022/05/06 13:33:23;;;;;;;14.57;6.73;;;;;;;;;;4997286;28;20022;-71
2022/05/06 13:35:49;;;;;;;9.77;6.00;;;;;;;;;;4998092;28;20497;-70
2022/05/06 13:38:14;;;;;;;10.40;6.22;;;;;;;;;;5002521;28;20025;-70
2022/05/06 13:40:40;;;;;;;15.45;8.20;;;;;;;;;;5007279;28;20067;-70
2022/05/06 13:43:05;;;;;;;10.97;7.60;;;;;;;;;;5002249;28;20069;-70
2022/05/06 13:45:30;;;;;;;14.23;8.30;;;;;;;;;;5000856;28;20071;-70
2022/05/06 13:47:55;;;;;;;12.93;7.07;;;;;;;;;;5002898;28;20309;-70
2022/05/06 13:50:20;;;;;;;8.87;6.53;;;;;;;;;;5004326;28;20136;-70
2022/05/06 13:52:46;;;;;;;11.57;6.88;;;;;;;;;;5004556;28;20018;-70
2022/05/06 13:55:11;;;;;;;13.40;8.87;;;;;;;;;;5003898;28;20079;-70
2022/05/06 14:00:20;;;;;;;13.68;7.38;;;;;;;;;;5001996;28;20024;-70
2022/05/06 14:02:46;;;;;;;13.75;5.90;;;;;;;;;;5005163;28;20042;-70
2022/05/06 14:05:12;;;;;;;10.65;7.45;;;;;;;;;;5000096;28;20112;-70
2022/05/06 14:07:37;;;;;;;11.88;7.00;;;;;;;;;;5003723;28;20101;-69
2022/05/06 14:10:03;;;;;;;15.63;6.50;;;;;;;;;;4999613;28;20026;-70
2022/05/06 14:12:28;;;;;;;15.93;8.80;;;;;;;;;;4999778;28;20064;-70
2022/05/06 14:14:54;;;;;;;16.10;10.00;;;;;;;;;;4999790;28;20053;-70
2022/05/06 14:17:19;;;;;;;16.03;8.97;;;;;;;;;;5000707;28;20018;-70
2022/05/06 14:19:44;;;;;;;15.45;8.63;;;;;;;;;;5003731;28;20345;-70
2022/05/06 14:22:09;;;;;;;17.17;9.05;;;;;;;;;;5008683;28;20030;-70
2022/05/06 14:24:35;;;;;;;15.47;8.40;;;;;;;;;;5004620;28;20034;-71
2022/05/06 14:27:01;;;;;;;15.52;8.80;;;;;;;;;;5004568;28;20030;-70
2022/05/06 14:29:26;;;;;;;15.93;9.90;;;;;;;;;;5003867;28;20479;-70
2022/05/06 14:31:51;;;;;;;14.27;7.47;;;;;;;;;;5005427;28;20026;-70
2022/05/06 14:34:16;;;;;;;11.83;7.13;;;;;;;;;;4996090;28;20034;-71
2022/05/06 14:36:41;;;;;;;13.17;6.37;;;;;;;;;;5005067;28;20061;-70
2022/05/06 14:39:06;;;;;;;13.98;7.38;;;;;;;;;;5001434;28;20023;-72
2022/05/06 14:41:32;;;;;;;12.48;7.60;;;;;;;;;;4999239;28;20038;-71
2022/05/06 14:43:57;;;;;;;12.40;8.75;;;;;;;;;;4998590;28;20439;-70
2022/05/06 14:46:23;;;;;;;13.90;9.30;;;;;;;;;;4994864;28;20026;-70
2022/05/06 14:48:51;;;;;;;17.63;9.70;;;;;;;;;;5005515;28;20034;-70
2022/05/06 14:51:16;;;;;;;14.30;8.52;;;;;;;;;;5005328;28;20117;-70
2022/05/06 14:53:41;;;;;;;15.43;8.77;;;;;;;;;;5003364;28;20137;-70
2022/05/06 14:56:06;;;;;;;14.23;9.77;;;;;;;;;;5000573;28;20040;-70
2022/05/06 14:58:32;;;;;;;12.18;8.30;;;;;;;;;;4998257;28;20274;-70
2022/05/06 15:00:58;;;;;;;14.68;9.35;;;;;;;;;;5002812;28;20064;-69